Grand Rapids, MI

8:44 PM EST on February 06, 2016 (GMT -0500)
APRSWXNET | | Change Station
CLOSE
Current Station
Personal Weather Station
Location: Grandville, MI
Elevation: 679 ft
Nearby Weather Stations

Elev 679 ft 42.94 °N, 85.78 °W | Updated 164 days ago

Partly Cloudy
Partly Cloudy
33 °F
Feels Like 28 °F
N
6
Wind Variable Wind from SSW
Gusts 11 mph

Today
High -- | Low -- °F
--% Chance of Precip.
Yesterday
High -- | Low -- °F
Precip. -- in
Pressure 30.14 in
Visibility 9.0 miles
Clouds Scattered Clouds 2200 ft
Scattered Clouds 3000 ft
Overcast 12000 ft
Windchill 28 °F
Dew Point 28 °F
Humidity 81%
Rainfall in
Snow Depth Not available.
7:52 AM 6:02 PM
Waning Crescent, 3% visible
SPECI KGRR 070108Z 21006KT 9SM SCT022 SCT030 OVC120 01/M03 A3014 RMK AO2 T00111028
Pressure 30.14 in
Visibility 9.0 miles
Clouds Scattered Clouds 2200 ft
Scattered Clouds 3000 ft
Overcast 12000 ft
Windchill 28 °F
Dew Point 28 °F
Humidity 81%
Rainfall in
Snow Depth Not available.
7:52 AM 6:02 PM
Waning Crescent, 3% visible
SPECI KGRR 070108Z 21006KT 9SM SCT022 SCT030 OVC120 01/M03 A3014 RMK AO2 T00111028

10-Day Weather Forecast

Almanac

Astronomy

Feb. 06, 2016 Rise Set
Actual Time
Civil Twilight
Nautical Twilight
Astronomical Twilight
Moon
Length of Visible Light
Length of Day
Tomorrow will be .
, % of the Moon is Illuminated

Today's Extremes

State Highs State Lows

Community

WunderPhotos

Upload Photos

1,891,123 photos uploaded!

WunderBlog® & News

Nearby

Air Quality

  Air Quality AQ Index Pollutant
Not available.

Snow Depth

Station Depth Elevation

Earthquake Activity

City Distance Mag. Time & Date
Minimum magnitude displayed is 2.5.

Coastal Water Temperatures

Place Temperature

Stations

Nearby Weather Stations

Station Location Temp. Windchill Dew Point Humidity Wind Precip. Elev Updated Type
                   

Watches & Warnings

There are currently no watches in effect.